createdAt,value
2023-12-07T00:01:03.008Z,11.73
2023-12-07T00:03:08.449Z,11.33
2023-12-07T00:05:12.273Z,10.70
2023-12-07T00:07:17.402Z,10.57
2023-12-07T00:09:21.366Z,11.20
2023-12-07T00:11:25.559Z,10.80
2023-12-07T00:16:55.449Z,10.97
2023-12-07T00:19:00.941Z,11.43
2023-12-07T00:21:03.503Z,10.77
2023-12-07T00:23:50.857Z,10.30
2023-12-07T00:25:56.006Z,11.10
2023-12-07T00:27:59.737Z,10.83
2023-12-07T00:30:03.153Z,11.93
2023-12-07T00:32:07.148Z,10.63
2023-12-07T00:34:13.449Z,13.00
2023-12-07T00:36:17.924Z,18.47
2023-12-07T00:38:26.565Z,16.03
2023-12-07T00:40:30.149Z,14.77
2023-12-07T00:42:32.640Z,15.27
2023-12-07T00:44:55.231Z,12.90
2023-12-07T00:46:58.940Z,15.40
2023-12-07T00:49:02.852Z,10.47
2023-12-07T00:51:08.436Z,10.67
2023-12-07T00:53:21.544Z,10.57
2023-12-07T00:55:24.108Z,10.20
2023-12-07T00:57:27.734Z,10.33
2023-12-07T00:59:35.457Z,11.17
2023-12-07T01:01:40.125Z,13.63
2023-12-07T01:03:42.925Z,14.70
2023-12-07T01:05:47.000Z,14.00
2023-12-07T01:07:52.494Z,10.97
2023-12-07T01:09:56.200Z,10.73
2023-12-07T01:12:00.565Z,11.67
2023-12-07T01:14:05.575Z,14.27
2023-12-07T01:16:09.538Z,17.23
2023-12-07T01:18:13.217Z,16.20
2023-12-07T01:20:17.244Z,13.07
2023-12-07T01:22:19.737Z,13.67
2023-12-07T01:24:27.311Z,12.10
2023-12-07T01:26:30.799Z,12.43
2023-12-07T01:28:35.228Z,13.10
2023-12-07T01:30:39.041Z,14.60
2023-12-07T01:32:42.945Z,14.97
2023-12-07T01:35:01.440Z,12.60
2023-12-07T01:37:09.138Z,11.57
2023-12-07T01:39:14.102Z,13.27
2023-12-07T01:41:19.634Z,16.10
2023-12-07T01:43:31.575Z,11.87
2023-12-07T01:45:35.000Z,10.97
2023-12-07T01:47:38.686Z,11.50
2023-12-07T01:49:44.045Z,11.40
2023-12-07T01:51:47.726Z,10.90
2023-12-07T01:53:53.463Z,13.63
2023-12-07T01:55:56.887Z,14.20
2023-12-07T01:58:01.636Z,12.80
2023-12-07T02:00:05.559Z,12.90
2023-12-07T02:02:09.192Z,13.00
2023-12-07T02:04:13.072Z,8.93
2023-12-07T02:06:16.397Z,9.03
2023-12-07T02:08:19.769Z,9.33
2023-12-07T02:10:23.602Z,7.40
2023-12-07T02:12:27.721Z,6.60
2023-12-07T02:14:39.359Z,6.17
2023-12-07T02:16:45.550Z,5.60
2023-12-07T02:18:52.275Z,6.13
2023-12-07T02:20:58.811Z,6.07
2023-12-07T02:23:04.137Z,5.37
2023-12-07T02:25:08.601Z,5.83
2023-12-07T02:27:18.451Z,6.33
2023-12-07T02:29:21.880Z,6.40
2023-12-07T02:31:28.004Z,6.00
2023-12-07T02:33:32.684Z,6.93
2023-12-07T02:35:37.717Z,11.60
2023-12-07T02:37:42.996Z,12.27
2023-12-07T02:39:47.022Z,8.50
2023-12-07T02:41:50.422Z,28.40
2023-12-07T02:43:56.654Z,10.77
2023-12-07T02:46:00.418Z,9.07
2023-12-07T02:48:03.834Z,8.43
2023-12-07T02:50:08.114Z,7.57
2023-12-07T02:52:11.632Z,8.70
2023-12-07T02:54:16.243Z,9.40
2023-12-07T02:56:19.658Z,8.77
2023-12-07T02:58:41.232Z,9.53
2023-12-07T03:00:46.296Z,9.37
2023-12-07T03:02:52.341Z,9.67
2023-12-07T03:04:55.840Z,10.43
2023-12-07T03:06:59.552Z,10.30
2023-12-07T03:09:03.050Z,9.53
2023-12-07T03:11:07.595Z,9.23
2023-12-07T03:13:11.508Z,9.97
2023-12-07T03:15:15.328Z,11.73
2023-12-07T03:17:20.380Z,11.77
2023-12-07T03:19:23.975Z,11.80
2023-12-07T03:21:27.696Z,11.40
2023-12-07T03:23:31.638Z,11.57
2023-12-07T03:25:35.087Z,11.23
2023-12-07T03:27:38.680Z,11.07
2023-12-07T03:29:42.292Z,11.70
2023-12-07T03:31:45.713Z,10.80
2023-12-07T03:33:51.084Z,11.30
2023-12-07T03:35:54.055Z,11.70
2023-12-07T03:37:57.668Z,11.20
2023-12-07T03:40:01.081Z,11.67
2023-12-07T03:42:04.987Z,11.77
2023-12-07T03:44:29.129Z,12.63
2023-12-07T03:46:32.853Z,12.67
2023-12-07T03:48:36.678Z,12.73
2023-12-07T03:50:41.737Z,12.23
2023-12-07T03:52:45.505Z,11.73
2023-12-07T03:54:48.332Z,12.03
2023-12-07T03:56:51.803Z,11.97
2023-12-07T03:58:55.422Z,12.17
2023-12-07T04:00:59.061Z,12.97
2023-12-07T04:03:03.040Z,11.73
2023-12-07T04:05:07.351Z,12.10
2023-12-07T04:07:12.329Z,13.47
2023-12-07T04:09:15.876Z,12.60
2023-12-07T04:11:19.209Z,12.67
2023-12-07T04:13:23.106Z,12.37
2023-12-07T04:15:25.545Z,12.53
2023-12-07T04:17:29.548Z,13.40
2023-12-07T04:19:33.087Z,12.97
2023-12-07T04:21:36.745Z,13.90
2023-12-07T04:23:41.966Z,11.83
2023-12-07T04:25:45.557Z,12.77
2023-12-07T04:27:49.010Z,12.50
2023-12-07T04:29:52.468Z,13.13
2023-12-07T04:31:55.867Z,12.70
2023-12-07T04:34:01.071Z,13.53
2023-12-07T04:36:05.893Z,12.83
2023-12-07T04:38:09.477Z,12.57
2023-12-07T04:40:13.919Z,12.93
2023-12-07T04:42:17.778Z,13.13
2023-12-07T04:44:21.602Z,12.97
2023-12-07T04:46:25.191Z,13.57
2023-12-07T04:48:28.734Z,12.90
2023-12-07T04:50:31.306Z,12.13
2023-12-07T04:52:36.772Z,13.80
2023-12-07T04:54:40.833Z,13.23
2023-12-07T04:56:45.984Z,13.33
2023-12-07T04:58:49.742Z,12.47
2023-12-07T05:00:53.860Z,13.47
2023-12-07T05:02:57.766Z,14.40
2023-12-07T05:05:01.580Z,13.20
2023-12-07T05:07:05.494Z,13.13
2023-12-07T05:09:10.717Z,13.63
2023-12-07T05:11:14.280Z,15.07
2023-12-07T05:13:20.702Z,14.47
2023-12-07T05:15:24.142Z,14.47
2023-12-07T05:17:27.552Z,13.43
2023-12-07T05:19:31.208Z,14.37
2023-12-07T05:21:35.001Z,14.97
2023-12-07T05:23:40.070Z,14.20
2023-12-07T05:25:43.718Z,14.03
2023-12-07T05:27:47.211Z,13.93
2023-12-07T05:29:51.920Z,15.07
2023-12-07T05:31:55.453Z,15.47
2023-12-07T05:33:59.448Z,14.73
2023-12-07T05:36:04.969Z,14.33
2023-12-07T05:38:08.569Z,15.67
2023-12-07T05:40:14.284Z,14.70
2023-12-07T05:42:17.725Z,14.07
2023-12-07T05:44:23.678Z,14.63
2023-12-07T05:46:28.597Z,14.97
2023-12-07T05:48:32.155Z,15.30
2023-12-07T05:50:35.780Z,14.43
2023-12-07T05:52:39.460Z,14.33
2023-12-07T05:54:44.784Z,13.67
2023-12-07T05:56:48.229Z,14.30
2023-12-07T05:58:52.217Z,13.03
2023-12-07T06:00:59.427Z,14.43
2023-12-07T06:03:06.789Z,13.87
2023-12-07T06:05:12.674Z,13.43
2023-12-07T06:07:18.495Z,15.10
2023-12-07T06:09:22.130Z,14.23
2023-12-07T06:11:25.804Z,13.87
2023-12-07T06:13:29.244Z,12.93
2023-12-07T06:15:32.968Z,13.90
2023-12-07T06:17:36.730Z,12.97
2023-12-07T06:19:41.874Z,15.03
2023-12-07T06:22:11.981Z,14.37
2023-12-07T06:24:26.054Z,14.50
2023-12-07T06:26:42.068Z,14.00
2023-12-07T06:28:59.235Z,14.60
2023-12-07T06:31:07.819Z,13.10
2023-12-07T06:33:10.766Z,13.90
2023-12-07T06:35:17.163Z,13.50
2023-12-07T06:37:21.451Z,14.73
2023-12-07T06:39:24.826Z,14.07
2023-12-07T06:41:30.537Z,14.20
2023-12-07T06:43:41.039Z,15.63
2023-12-07T06:45:44.653Z,16.37
2023-12-07T06:47:48.332Z,14.17
2023-12-07T06:49:53.288Z,13.90
2023-12-07T06:51:58.858Z,15.03
2023-12-07T06:54:02.609Z,14.53
2023-12-07T06:56:06.125Z,14.40
2023-12-07T06:58:11.372Z,13.83
2023-12-07T07:00:15.699Z,13.43
2023-12-07T07:02:19.371Z,13.77
2023-12-07T07:04:23.188Z,13.90
2023-12-07T07:06:26.663Z,14.33
2023-12-07T07:08:31.622Z,14.50
2023-12-07T07:10:35.793Z,14.93
2023-12-07T07:12:39.527Z,14.50
2023-12-07T07:14:44.241Z,14.23
2023-12-07T07:16:47.829Z,15.10
2023-12-07T07:18:51.575Z,16.43
2023-12-07T07:20:55.045Z,16.23
2023-12-07T07:22:58.853Z,15.93
2023-12-07T07:25:04.372Z,15.33
2023-12-07T07:27:08.043Z,14.10
2023-12-07T07:29:11.912Z,12.63
2023-12-07T07:31:15.456Z,14.43
2023-12-07T07:33:19.432Z,14.13
2023-12-07T07:35:23.297Z,14.37
2023-12-07T07:37:27.415Z,15.07
2023-12-07T07:39:31.275Z,12.73
2023-12-07T07:41:37.121Z,13.40
2023-12-07T07:43:41.173Z,13.87
2023-12-07T07:45:45.118Z,14.60
2023-12-07T07:47:48.734Z,13.83
2023-12-07T07:49:52.606Z,13.90
2023-12-07T07:51:56.653Z,14.17
2023-12-07T07:53:59.837Z,12.50
2023-12-07T07:56:03.376Z,12.17
2023-12-07T07:58:11.993Z,14.37
2023-12-07T08:00:16.929Z,13.07
2023-12-07T08:02:20.487Z,13.43
2023-12-07T08:04:24.693Z,13.03
2023-12-07T08:06:28.186Z,14.03
2023-12-07T08:08:31.844Z,13.13
2023-12-07T08:10:50.094Z,13.10
2023-12-07T08:12:59.362Z,12.60
2023-12-07T08:15:03.527Z,13.53
2023-12-07T08:17:07.173Z,13.17
2023-12-07T08:19:11.001Z,13.03
2023-12-07T08:21:24.577Z,13.80
2023-12-07T08:23:31.552Z,13.40
2023-12-07T08:25:35.261Z,13.67
2023-12-07T08:27:39.822Z,15.97
2023-12-07T08:29:43.872Z,24.17
2023-12-07T08:31:49.339Z,14.37
2023-12-07T08:33:53.770Z,13.90
2023-12-07T08:35:58.306Z,16.17
2023-12-07T08:38:02.360Z,17.97
2023-12-07T08:40:05.786Z,15.20
2023-12-07T08:42:09.319Z,15.70
2023-12-07T08:44:12.715Z,16.73
2023-12-07T08:46:16.309Z,19.03
2023-12-07T08:48:22.030Z,16.87
2023-12-07T08:50:24.960Z,16.67
2023-12-07T08:52:40.172Z,18.23
2023-12-07T08:54:49.562Z,17.50
2023-12-07T08:56:53.896Z,18.30
2023-12-07T08:58:57.591Z,18.30
2023-12-07T09:01:01.442Z,19.67
2023-12-07T09:03:05.649Z,19.97
2023-12-07T09:05:10.748Z,18.27
2023-12-07T09:07:18.082Z,18.63
2023-12-07T09:09:23.715Z,19.30
2023-12-07T09:11:27.154Z,19.73
2023-12-07T09:13:32.989Z,20.27
2023-12-07T09:15:38.656Z,19.47
2023-12-07T09:17:41.838Z,18.73
2023-12-07T09:19:47.306Z,18.10
2023-12-07T09:21:52.341Z,17.57
2023-12-07T09:23:55.073Z,16.90
2023-12-07T09:25:58.800Z,17.63
2023-12-07T09:28:02.434Z,20.10
2023-12-07T09:30:12.665Z,19.77
2023-12-07T09:32:17.527Z,21.47
2023-12-07T09:34:26.295Z,20.20
2023-12-07T09:36:29.764Z,19.57
2023-12-07T09:38:34.776Z,20.13
2023-12-07T09:40:38.398Z,18.37
2023-12-07T09:42:44.938Z,18.00
2023-12-07T09:44:51.369Z,18.83
2023-12-07T09:46:55.236Z,16.60
2023-12-07T09:48:59.101Z,17.73
2023-12-07T09:51:04.358Z,16.20
2023-12-07T09:53:09.027Z,16.57
2023-12-07T09:55:19.224Z,15.23
2023-12-07T09:57:28.218Z,15.47
2023-12-07T09:59:33.909Z,16.93
2023-12-07T10:01:37.792Z,16.93
2023-12-07T10:03:43.835Z,16.27
2023-12-07T10:05:58.865Z,15.77
2023-12-07T10:08:02.618Z,15.50
2023-12-07T10:10:12.805Z,15.23
2023-12-07T10:12:17.741Z,15.30
2023-12-07T10:14:21.270Z,14.17
2023-12-07T10:16:26.215Z,15.13
2023-12-07T10:18:31.007Z,15.10
2023-12-07T10:20:35.001Z,14.53
2023-12-07T10:22:40.458Z,14.27
2023-12-07T10:24:46.359Z,14.67
2023-12-07T10:27:03.833Z,16.20
2023-12-07T10:29:17.547Z,16.33
2023-12-07T10:31:28.319Z,16.20
2023-12-07T10:33:31.970Z,16.43
2023-12-07T10:35:36.090Z,17.00
2023-12-07T10:37:40.170Z,17.30
2023-12-07T10:39:43.757Z,18.20
2023-12-07T10:41:47.991Z,19.60
2023-12-07T10:44:08.895Z,20.23
2023-12-07T10:46:12.772Z,20.97
2023-12-07T10:48:16.922Z,23.90
2023-12-07T10:50:21.833Z,23.97
2023-12-07T10:52:27.165Z,23.77
2023-12-07T10:54:37.388Z,23.73
2023-12-07T10:58:41.742Z,23.10
2023-12-07T11:00:49.169Z,22.77
2023-12-07T11:02:54.742Z,24.27
2023-12-07T11:05:14.149Z,23.83
2023-12-07T11:07:20.396Z,23.73
2023-12-07T11:09:29.594Z,23.17
2023-12-07T11:11:36.564Z,22.70
2023-12-07T11:13:40.847Z,25.97
2023-12-07T11:16:18.736Z,23.73
2023-12-07T11:18:22.831Z,23.93
2023-12-07T11:20:35.264Z,25.57
2023-12-07T11:22:39.317Z,24.97
2023-12-07T11:25:11.111Z,24.33
2023-12-07T11:27:14.195Z,23.93
2023-12-07T11:29:21.082Z,21.10
2023-12-07T11:31:30.417Z,20.87
2023-12-07T11:33:34.390Z,23.50
2023-12-07T11:36:05.153Z,22.97
2023-12-07T11:38:12.987Z,21.93
2023-12-07T11:40:19.630Z,22.83
2023-12-07T11:42:29.654Z,22.30
2023-12-07T12:09:02.762Z,26.17
2023-12-07T12:11:07.288Z,21.37
2023-12-07T12:13:13.078Z,21.30
2023-12-07T12:15:19.781Z,20.63
2023-12-07T12:17:29.094Z,23.07
2023-12-07T12:19:35.798Z,26.10
2023-12-07T12:21:42.874Z,28.33
2023-12-07T12:23:50.765Z,29.27
2023-12-07T12:26:01.288Z,30.63
2023-12-07T12:28:06.009Z,31.37
2023-12-07T12:34:14.554Z,29.80
2023-12-07T12:36:22.710Z,31.17
2023-12-07T12:38:31.799Z,31.33
2023-12-07T12:40:43.323Z,30.43
2023-12-07T12:43:03.539Z,31.00
2023-12-07T12:45:09.588Z,31.50
2023-12-07T12:47:13.758Z,33.17
2023-12-07T12:49:18.340Z,30.80
2023-12-07T12:51:23.708Z,30.07
2023-12-07T12:53:29.316Z,30.30
2023-12-07T12:55:44.467Z,31.37
2023-12-07T12:57:49.873Z,30.83
2023-12-07T13:03:23.851Z,29.70
2023-12-07T13:05:27.547Z,28.43
2023-12-07T13:07:32.548Z,30.10
2023-12-07T13:09:36.461Z,29.20
2023-12-07T13:11:39.199Z,27.87
2023-12-07T13:33:38.874Z,28.40
2023-12-07T13:35:48.870Z,26.90
2023-12-07T13:37:55.174Z,28.77
2023-12-07T13:43:26.003Z,29.90
2023-12-07T13:45:34.545Z,29.57
2023-12-07T13:47:47.666Z,31.67
2023-12-07T13:49:52.310Z,28.13
2023-12-07T14:00:05.265Z,26.17
2023-12-07T14:02:10.282Z,26.77
2023-12-07T14:04:23.908Z,27.37
2023-12-07T14:06:49.475Z,28.20
2023-12-07T14:08:53.105Z,28.17
2023-12-07T14:10:56.808Z,27.83
2023-12-07T14:13:13.471Z,24.77
2023-12-07T14:15:35.359Z,26.47
2023-12-07T14:17:53.162Z,26.60
2023-12-07T14:21:10.739Z,25.67
2023-12-07T14:23:24.479Z,26.50
2023-12-07T14:25:28.318Z,25.57
2023-12-07T14:27:32.170Z,26.10
2023-12-07T14:29:35.827Z,26.43
2023-12-07T14:31:39.697Z,25.70
2023-12-07T14:33:45.468Z,25.00
2023-12-07T14:35:50.233Z,26.13
2023-12-07T14:38:09.836Z,25.53
2023-12-07T14:40:18.775Z,25.13
2023-12-07T14:42:23.203Z,25.20
2023-12-07T14:44:29.832Z,24.77
2023-12-07T14:46:34.410Z,26.00
2023-12-07T14:48:39.865Z,25.40
2023-12-07T14:50:51.647Z,25.10
2023-12-07T14:52:58.358Z,25.43
2023-12-07T14:55:12.202Z,24.07
2023-12-07T14:57:17.176Z,25.63
2023-12-07T14:59:21.306Z,25.77
2023-12-07T15:01:25.146Z,25.90
2023-12-07T15:03:29.006Z,25.50
2023-12-07T15:05:33.391Z,27.77
2023-12-07T15:07:37.357Z,29.20
2023-12-07T15:13:09.158Z,32.47
2023-12-07T15:15:13.313Z,32.50
2023-12-07T15:17:17.462Z,31.73
2023-12-07T15:19:41.270Z,31.63
2023-12-07T15:21:51.755Z,30.87
2023-12-07T15:23:55.763Z,30.47
2023-12-07T15:25:59.656Z,29.97
2023-12-07T15:28:03.214Z,30.60
2023-12-07T15:30:24.735Z,30.13
2023-12-07T15:32:28.803Z,30.43
2023-12-07T15:34:38.883Z,32.20
2023-12-07T15:36:44.991Z,30.37
2023-12-07T15:38:51.618Z,34.40
2023-12-07T15:40:57.357Z,33.50
2023-12-07T15:46:28.471Z,31.83
2023-12-07T15:48:35.568Z,31.63
2023-12-07T15:50:39.450Z,31.03
2023-12-07T15:55:59.127Z,29.00
2023-12-07T15:58:04.002Z,28.87
2023-12-07T16:00:14.578Z,28.43
2023-12-07T16:04:44.930Z,21.50
2023-12-07T16:06:51.805Z,19.90
2023-12-07T16:08:59.363Z,18.83
2023-12-07T16:17:15.024Z,14.70
2023-12-07T16:19:19.715Z,14.57
2023-12-07T16:21:33.452Z,10.60
2023-12-07T16:23:37.466Z,11.83
2023-12-07T16:25:41.373Z,13.00
2023-12-07T16:27:47.067Z,12.43
2023-12-07T16:29:50.751Z,12.70
2023-12-07T16:31:54.502Z,13.40
2023-12-07T16:37:28.425Z,12.60
2023-12-07T16:39:33.549Z,12.03
2023-12-07T16:41:41.967Z,12.37
2023-12-07T16:44:28.659Z,12.73
2023-12-07T16:46:32.514Z,11.67
2023-12-07T16:48:36.973Z,12.00
2023-12-07T16:50:43.842Z,11.83
2023-12-07T16:53:35.008Z,12.07
2023-12-07T16:55:42.625Z,12.27
2023-12-07T16:57:46.950Z,12.43
2023-12-07T16:59:50.738Z,12.67
2023-12-07T17:04:13.839Z,11.83
2023-12-07T17:06:19.884Z,13.30
2023-12-07T17:08:24.565Z,12.03
2023-12-07T17:10:28.337Z,12.87
2023-12-07T17:12:33.598Z,11.73
2023-12-07T17:15:23.506Z,9.90
2023-12-07T17:17:27.648Z,10.23
2023-12-07T17:19:35.714Z,10.63
2023-12-07T17:21:44.878Z,10.33
2023-12-07T17:24:19.797Z,11.03
2023-12-07T17:26:23.913Z,10.63
2023-12-07T17:28:29.280Z,11.47
2023-12-07T17:30:33.156Z,11.80
2023-12-07T17:32:37.077Z,12.37
2023-12-07T17:34:42.823Z,12.57
2023-12-07T17:36:46.573Z,13.10
2023-12-07T17:38:52.855Z,12.03
2023-12-07T17:40:58.031Z,12.90
2023-12-07T17:44:15.148Z,12.17
2023-12-07T17:46:20.911Z,12.30
2023-12-07T17:48:24.897Z,11.83
2023-12-07T17:50:28.893Z,12.47
2023-12-07T17:52:34.276Z,11.47
2023-12-07T17:55:00.539Z,12.03
2023-12-07T17:57:04.502Z,12.97
2023-12-07T17:59:09.222Z,12.83
2023-12-07T18:01:28.439Z,12.57
2023-12-07T18:03:32.907Z,12.27
2023-12-07T18:05:36.974Z,12.27
2023-12-07T18:07:40.826Z,11.77
2023-12-07T18:09:44.969Z,12.20
2023-12-07T18:11:47.741Z,11.77
2023-12-07T18:13:58.989Z,11.67
2023-12-07T18:16:03.657Z,11.53
2023-12-07T18:18:07.619Z,11.97
2023-12-07T18:20:14.062Z,11.87
2023-12-07T18:22:17.910Z,12.20
2023-12-07T18:24:33.037Z,12.07
2023-12-07T18:26:38.548Z,12.27
2023-12-07T18:28:43.010Z,12.70
2023-12-07T18:30:46.940Z,11.93
2023-12-07T18:33:06.271Z,12.77
2023-12-07T18:35:12.564Z,12.93
2023-12-07T18:37:16.630Z,11.87
2023-12-07T18:39:20.832Z,13.53
2023-12-07T18:41:25.991Z,12.47
2023-12-07T18:43:31.101Z,13.57
2023-12-07T18:45:34.884Z,12.90
2023-12-07T18:47:39.183Z,13.67
2023-12-07T18:49:43.280Z,13.47
2023-12-07T18:51:48.595Z,14.17
2023-12-07T18:54:25.145Z,14.60
2023-12-07T18:56:29.606Z,14.53
2023-12-07T18:58:33.519Z,14.40
2023-12-07T19:00:37.414Z,14.13
2023-12-07T19:02:40.383Z,14.20
2023-12-07T19:04:45.260Z,14.13
2023-12-07T19:06:49.449Z,14.57
2023-12-07T19:08:53.875Z,13.77
2023-12-07T19:10:57.919Z,13.57
2023-12-07T19:13:02.639Z,12.97
2023-12-07T19:15:07.520Z,13.37
2023-12-07T19:17:11.584Z,15.00
2023-12-07T19:19:14.525Z,14.10
2023-12-07T19:21:18.498Z,14.60
2023-12-07T19:23:26.336Z,13.97
2023-12-07T19:25:30.218Z,14.63
2023-12-07T19:27:44.995Z,15.63
2023-12-07T19:29:48.896Z,14.73
2023-12-07T19:31:52.792Z,14.23
2023-12-07T19:33:59.125Z,14.87
2023-12-07T19:36:04.692Z,14.87
2023-12-07T19:38:08.741Z,14.40
2023-12-07T19:40:16.037Z,14.97
2023-12-07T19:42:21.140Z,14.70
2023-12-07T19:44:31.546Z,14.73
2023-12-07T19:46:36.254Z,14.17
2023-12-07T19:48:41.139Z,14.90
2023-12-07T19:50:46.522Z,13.83
2023-12-07T19:52:51.183Z,14.10
2023-12-07T19:54:56.501Z,14.87
2023-12-07T19:57:03.244Z,15.10
2023-12-07T19:59:09.000Z,15.87
2023-12-07T20:01:12.831Z,15.80
2023-12-07T20:03:17.099Z,14.80
2023-12-07T20:05:21.667Z,14.03
2023-12-07T20:07:25.877Z,15.57
2023-12-07T20:09:32.329Z,14.50
2023-12-07T20:11:37.222Z,15.10
2023-12-07T20:13:42.848Z,14.77
2023-12-07T20:15:46.760Z,15.80
2023-12-07T20:17:51.686Z,16.80
2023-12-07T20:19:55.292Z,15.00
2023-12-07T20:22:01.697Z,16.07
2023-12-07T20:24:07.627Z,16.87
2023-12-07T20:26:16.261Z,17.47
2023-12-07T20:28:20.175Z,16.43
2023-12-07T20:30:25.580Z,17.50
2023-12-07T20:32:29.655Z,16.40
2023-12-07T20:34:43.814Z,16.83
2023-12-07T20:36:50.429Z,16.97
2023-12-07T20:38:54.522Z,17.63
2023-12-07T20:40:57.387Z,18.30
2023-12-07T20:43:01.236Z,18.57
2023-12-07T20:45:08.197Z,17.83
2023-12-07T20:47:13.658Z,19.07
2023-12-07T20:49:18.014Z,18.00
2023-12-07T20:51:22.464Z,18.60
2023-12-07T20:53:27.592Z,19.50
2023-12-07T20:55:33.482Z,18.60
2023-12-07T20:57:37.604Z,18.40
2023-12-07T20:59:42.226Z,19.10
2023-12-07T21:01:46.102Z,18.83
2023-12-07T21:03:59.228Z,18.67
2023-12-07T21:06:03.375Z,19.43
2023-12-07T21:08:06.726Z,19.00
2023-12-07T21:10:11.642Z,18.77
2023-12-07T21:12:15.550Z,20.07
2023-12-07T21:14:33.290Z,18.97
2023-12-07T21:16:37.408Z,20.13
2023-12-07T21:18:41.798Z,18.37
2023-12-07T21:20:47.750Z,20.13
2023-12-07T21:22:52.307Z,18.70
2023-12-07T21:24:57.990Z,19.33
2023-12-07T21:27:01.966Z,19.10
2023-12-07T21:29:05.707Z,19.90
2023-12-07T21:31:09.724Z,20.97
2023-12-07T21:33:18.642Z,18.87
2023-12-07T21:35:22.704Z,19.63
2023-12-07T21:37:27.170Z,19.20
2023-12-07T21:39:31.174Z,19.97
2023-12-07T21:41:35.381Z,20.20
2023-12-07T21:43:40.730Z,18.63
2023-12-07T21:45:44.821Z,19.03
2023-12-07T21:47:48.898Z,19.80
2023-12-07T21:49:51.974Z,18.77
2023-12-07T21:51:56.103Z,19.60
2023-12-07T21:54:02.838Z,19.63
2023-12-07T21:56:07.542Z,18.60
2023-12-07T21:58:11.413Z,18.20
2023-12-07T22:00:17.415Z,19.17
2023-12-07T22:02:20.619Z,18.73
2023-12-07T22:04:25.947Z,18.83
2023-12-07T22:06:30.160Z,19.33
2023-12-07T22:08:33.959Z,18.33
2023-12-07T22:10:39.527Z,19.63
2023-12-07T22:12:44.189Z,19.50
2023-12-07T22:14:48.220Z,19.00
2023-12-07T22:16:52.415Z,18.57
2023-12-07T22:18:58.451Z,19.00
2023-12-07T22:21:01.568Z,19.63
2023-12-07T22:23:06.746Z,19.10
2023-12-07T22:25:10.984Z,18.67
2023-12-07T22:27:16.447Z,18.40
2023-12-07T22:29:20.301Z,18.50
2023-12-07T22:31:24.096Z,18.07
2023-12-07T22:33:30.431Z,19.27
2023-12-07T22:35:34.614Z,18.37
2023-12-07T22:37:38.565Z,18.23
2023-12-07T22:39:41.345Z,17.80
2023-12-07T22:41:46.097Z,17.47
2023-12-07T22:43:52.738Z,17.47
2023-12-07T22:45:56.515Z,17.83
2023-12-07T22:48:00.819Z,17.03
2023-12-07T22:50:05.063Z,17.97
2023-12-07T22:52:09.414Z,17.23
2023-12-07T22:54:21.042Z,17.80
2023-12-07T22:56:25.042Z,16.80
2023-12-07T22:58:29.230Z,17.90
2023-12-07T23:00:34.817Z,18.73
2023-12-07T23:02:38.672Z,16.67
2023-12-07T23:05:01.747Z,17.77
2023-12-07T23:07:05.974Z,18.27
2023-12-07T23:09:09.677Z,17.87
2023-12-07T23:11:14.585Z,17.43
2023-12-07T23:13:19.685Z,18.20
2023-12-07T23:15:23.488Z,17.53
2023-12-07T23:17:29.107Z,17.93
2023-12-07T23:19:33.011Z,18.87
2023-12-07T23:21:37.031Z,17.63
2023-12-07T23:23:42.230Z,17.30
2023-12-07T23:25:46.275Z,17.27
2023-12-07T23:27:49.855Z,17.93
2023-12-07T23:29:55.220Z,17.87
2023-12-07T23:32:00.745Z,17.47
2023-12-07T23:34:13.766Z,18.23
2023-12-07T23:36:17.728Z,17.17
2023-12-07T23:38:20.531Z,18.50
2023-12-07T23:40:24.115Z,17.67
2023-12-07T23:42:26.934Z,17.17
2023-12-07T23:45:01.597Z,17.07
2023-12-07T23:47:05.149Z,17.57
2023-12-07T23:49:08.943Z,17.73
2023-12-07T23:51:13.082Z,16.90
2023-12-07T23:53:17.085Z,17.67
2023-12-07T23:55:21.110Z,17.20
2023-12-07T23:57:25.293Z,18.07
2023-12-07T23:59:28.329Z,18.40
